Terminal Aerodrome Forecast
Issued by NWS

Home | Current Version | Previous Version | Text Only | Print | Product List | Glossary On
Versions: 1 2 3 4 5 6 7 8 9 10 11 12 13 14 15 16
000
FTUS43 KGRR 242341
TAFLAN
TAF
KLAN 242341Z 2500/2524 02010KT 5SM -SHRA SCT025 OVC060
      TEMPO 2500/2501 2SM SHRA
     FM250200 04011KT 6SM -SHRA OVC025
     FM250400 01010KT 4SM -SHRA BR OVC009
     FM250600 01007KT 3SM BR VCSH OVC007
     FM251600 01010KT P6SM VCSH OVC015
     FM252200 35010G16KT P6SM VCTS BKN025CB=

USA.gov is the U.S. government's official web portal to all federal, state and local government web resources and services.